sensor_id;sensor_type;location;lat;lon;timestamp;temperature;humidity
6407;DHT22;3236;51.022;6.818;2024-03-08T00:00:44;3.20;63.00
6407;DHT22;3236;51.022;6.818;2024-03-08T00:03:11;2.80;92.60
6407;DHT22;3236;51.022;6.818;2024-03-08T00:05:39;2.70;99.90
6407;DHT22;3236;51.022;6.818;2024-03-08T00:10:37;2.90;1.00
6407;DHT22;3236;51.022;6.818;2024-03-08T00:13:07;2.90;99.90
6407;DHT22;3236;51.022;6.818;2024-03-08T00:15:34;2.70;99.90
6407;DHT22;3236;51.022;6.818;2024-03-08T00:20:28;2.90;41.40
6407;DHT22;3236;51.022;6.818;2024-03-08T00:22:55;2.90;83.60
6407;DHT22;3236;51.022;6.818;2024-03-08T00:25:23;2.70;99.90
6407;DHT22;3236;51.022;6.818;2024-03-08T00:27:51;2.90;95.80
6407;DHT22;3236;51.022;6.818;2024-03-08T00:30:21;2.70;99.90
6407;DHT22;3236;51.022;6.818;2024-03-08T00:32:48;2.70;99.90
6407;DHT22;3236;51.022;6.818;2024-03-08T00:35:15;4.30;94.40
6407;DHT22;3236;51.022;6.818;2024-03-08T00:37:43;2.90;75.00
6407;DHT22;3236;51.022;6.818;2024-03-08T00:40:13;2.80;88.40
6407;DHT22;3236;51.022;6.818;2024-03-08T00:42:40;2.90;99.90
6407;DHT22;3236;51.022;6.818;2024-03-08T00:45:11;2.90;99.90
6407;DHT22;3236;51.022;6.818;2024-03-08T00:47:38;2.80;99.50
6407;DHT22;3236;51.022;6.818;2024-03-08T00:50:10;2.80;99.90
6407;DHT22;3236;51.022;6.818;2024-03-08T00:52:38;3.30;99.90
6407;DHT22;3236;51.022;6.818;2024-03-08T00:55:05;2.70;99.90
6407;DHT22;3236;51.022;6.818;2024-03-08T00:57:33;2.80;99.90
6407;DHT22;3236;51.022;6.818;2024-03-08T01:00:03;2.60;99.90
6407;DHT22;3236;51.022;6.818;2024-03-08T01:02:32;2.70;99.90
6407;DHT22;3236;51.022;6.818;2024-03-08T01:05:01;2.90;99.90
6407;DHT22;3236;51.022;6.818;2024-03-08T01:07:28;2.70;99.90
6407;DHT22;3236;51.022;6.818;2024-03-08T01:10:05;2.70;99.90
6407;DHT22;3236;51.022;6.818;2024-03-08T01:12:38;2.70;99.90
6407;DHT22;3236;51.022;6.818;2024-03-08T01:15:06;2.60;99.90
6407;DHT22;3236;51.022;6.818;2024-03-08T01:17:34;2.40;99.90
6407;DHT22;3236;51.022;6.818;2024-03-08T01:20:01;2.90;99.90
6407;DHT22;3236;51.022;6.818;2024-03-08T01:22:29;2.50;99.90
6407;DHT22;3236;51.022;6.818;2024-03-08T01:24:56;2.40;99.90
6407;DHT22;3236;51.022;6.818;2024-03-08T01:27:23;2.20;1.00
6407;DHT22;3236;51.022;6.818;2024-03-08T01:29:51;2.30;99.90
6407;DHT22;3236;51.022;6.818;2024-03-08T01:32:18;2.50;1.00
6407;DHT22;3236;51.022;6.818;2024-03-08T01:34:46;2.30;99.90
6407;DHT22;3236;51.022;6.818;2024-03-08T01:37:13;2.30;99.90
6407;DHT22;3236;51.022;6.818;2024-03-08T01:39:44;2.50;19.10
6407;DHT22;3236;51.022;6.818;2024-03-08T01:47:10;2.10;1.00
6407;DHT22;3236;51.022;6.818;2024-03-08T01:49:38;2.20;9.10
6407;DHT22;3236;51.022;6.818;2024-03-08T01:52:07;1.90;99.90
6407;DHT22;3236;51.022;6.818;2024-03-08T01:54:35;2.10;68.70
6407;DHT22;3236;51.022;6.818;2024-03-08T01:57:11;1.90;99.90
6407;DHT22;3236;51.022;6.818;2024-03-08T01:59:39;2.10;99.90
6407;DHT22;3236;51.022;6.818;2024-03-08T02:02:08;2.30;99.90
6407;DHT22;3236;51.022;6.818;2024-03-08T02:04:36;2.10;99.90
6407;DHT22;3236;51.022;6.818;2024-03-08T02:07:06;2.10;99.90
6407;DHT22;3236;51.022;6.818;2024-03-08T02:09:32;2.20;99.90
6407;DHT22;3236;51.022;6.818;2024-03-08T02:12:01;2.20;99.90
6407;DHT22;3236;51.022;6.818;2024-03-08T02:14:28;4.80;99.90
6407;DHT22;3236;51.022;6.818;2024-03-08T02:17:00;2.20;99.90
6407;DHT22;3236;51.022;6.818;2024-03-08T02:19:27;2.30;99.90
6407;DHT22;3236;51.022;6.818;2024-03-08T02:21:55;2.30;99.90
6407;DHT22;3236;51.022;6.818;2024-03-08T02:24:23;2.40;99.90
6407;DHT22;3236;51.022;6.818;2024-03-08T02:29:23;2.20;99.90
6407;DHT22;3236;51.022;6.818;2024-03-08T02:34:18;2.00;99.90
6407;DHT22;3236;51.022;6.818;2024-03-08T02:39:14;1.80;99.90
6407;DHT22;3236;51.022;6.818;2024-03-08T02:51:33;1.50;87.70
6407;DHT22;3236;51.022;6.818;2024-03-08T02:56:31;1.50;99.90
6407;DHT22;3236;51.022;6.818;2024-03-08T02:59:00;1.10;99.90
6407;DHT22;3236;51.022;6.818;2024-03-08T03:01:27;1.50;99.90
6407;DHT22;3236;51.022;6.818;2024-03-08T03:03:54;1.20;99.90
6407;DHT22;3236;51.022;6.818;2024-03-08T03:11:21;1.20;90.90
6407;DHT22;3236;51.022;6.818;2024-03-08T03:13:49;1.40;99.90
6407;DHT22;3236;51.022;6.818;2024-03-08T03:16:19;1.50;99.90
6407;DHT22;3236;51.022;6.818;2024-03-08T03:18:47;1.40;99.90
6407;DHT22;3236;51.022;6.818;2024-03-08T03:21:14;1.30;99.90
6407;DHT22;3236;51.022;6.818;2024-03-08T03:23:41;1.70;99.90
6407;DHT22;3236;51.022;6.818;2024-03-08T03:26:08;1.70;99.90
6407;DHT22;3236;51.022;6.818;2024-03-08T03:28:36;1.80;99.90
6407;DHT22;3236;51.022;6.818;2024-03-08T03:31:09;1.50;99.90
6407;DHT22;3236;51.022;6.818;2024-03-08T03:33:42;1.50;99.90
6407;DHT22;3236;51.022;6.818;2024-03-08T03:36:09;1.50;99.90
6407;DHT22;3236;51.022;6.818;2024-03-08T03:38:37;1.70;99.90
6407;DHT22;3236;51.022;6.818;2024-03-08T03:41:04;1.40;1.00
6407;DHT22;3236;51.022;6.818;2024-03-08T03:43:37;1.60;1.00
6407;DHT22;3236;51.022;6.818;2024-03-08T03:46:07;1.60;1.00
6407;DHT22;3236;51.022;6.818;2024-03-08T03:48:36;1.30;99.90
6407;DHT22;3236;51.022;6.818;2024-03-08T03:51:03;1.40;1.00
6407;DHT22;3236;51.022;6.818;2024-03-08T03:53:30;1.20;99.90
6407;DHT22;3236;51.022;6.818;2024-03-08T03:55:57;1.50;99.90
6407;DHT22;3236;51.022;6.818;2024-03-08T03:58:31;1.20;38.60
6407;DHT22;3236;51.022;6.818;2024-03-08T04:00:58;1.40;99.90
6407;DHT22;3236;51.022;6.818;2024-03-08T04:03:26;1.20;98.10
6407;DHT22;3236;51.022;6.818;2024-03-08T04:05:53;0.80;99.90
6407;DHT22;3236;51.022;6.818;2024-03-08T04:08:20;1.10;99.90
6407;DHT22;3236;51.022;6.818;2024-03-08T04:10:49;1.00;26.90
6407;DHT22;3236;51.022;6.818;2024-03-08T04:13:16;0.90;99.90
6407;DHT22;3236;51.022;6.818;2024-03-08T04:15:43;1.20;99.90
6407;DHT22;3236;51.022;6.818;2024-03-08T04:18:10;0.80;42.70
6407;DHT22;3236;51.022;6.818;2024-03-08T04:20:39;0.80;90.10
6407;DHT22;3236;51.022;6.818;2024-03-08T04:23:06;0.90;1.00
6407;DHT22;3236;51.022;6.818;2024-03-08T04:25:33;0.90;99.90
6407;DHT22;3236;51.022;6.818;2024-03-08T04:28:00;1.10;41.20
6407;DHT22;3236;51.022;6.818;2024-03-08T04:30:27;0.90;1.00
6407;DHT22;3236;51.022;6.818;2024-03-08T04:32:55;1.30;1.00
6407;DHT22;3236;51.022;6.818;2024-03-08T04:35:22;1.10;1.00
6407;DHT22;3236;51.022;6.818;2024-03-08T04:37:51;1.10;99.90
6407;DHT22;3236;51.022;6.818;2024-03-08T04:40:18;1.10;1.00
6407;DHT22;3236;51.022;6.818;2024-03-08T04:45:12;1.40;99.90
6407;DHT22;3236;51.022;6.818;2024-03-08T04:47:39;1.40;99.90
6407;DHT22;3236;51.022;6.818;2024-03-08T04:50:07;1.60;99.90
6407;DHT22;3236;51.022;6.818;2024-03-08T04:52:35;1.50;11.00
6407;DHT22;3236;51.022;6.818;2024-03-08T04:57:31;1.80;99.90
6407;DHT22;3236;51.022;6.818;2024-03-08T04:59:58;1.50;99.90
6407;DHT22;3236;51.022;6.818;2024-03-08T05:02:28;1.50;99.90
6407;DHT22;3236;51.022;6.818;2024-03-08T05:04:56;1.50;99.90
6407;DHT22;3236;51.022;6.818;2024-03-08T05:07:23;1.10;99.90
6407;DHT22;3236;51.022;6.818;2024-03-08T05:09:50;1.10;99.90
6407;DHT22;3236;51.022;6.818;2024-03-08T05:12:20;1.40;99.90
6407;DHT22;3236;51.022;6.818;2024-03-08T05:14:48;1.40;99.90
6407;DHT22;3236;51.022;6.818;2024-03-08T05:17:15;1.10;99.90
6407;DHT22;3236;51.022;6.818;2024-03-08T05:19:43;1.40;99.90
6407;DHT22;3236;51.022;6.818;2024-03-08T05:22:10;1.30;99.90
6407;DHT22;3236;51.022;6.818;2024-03-08T05:24:36;1.30;99.90
6407;DHT22;3236;51.022;6.818;2024-03-08T05:27:04;1.70;99.90
6407;DHT22;3236;51.022;6.818;2024-03-08T05:29:33;1.10;99.90
6407;DHT22;3236;51.022;6.818;2024-03-08T05:32:00;1.20;99.90
6407;DHT22;3236;51.022;6.818;2024-03-08T05:34:28;1.30;99.90
6407;DHT22;3236;51.022;6.818;2024-03-08T05:36:55;1.10;1.00
6407;DHT22;3236;51.022;6.818;2024-03-08T05:39:24;1.20;68.40
6407;DHT22;3236;51.022;6.818;2024-03-08T05:41:50;1.40;48.30
6407;DHT22;3236;51.022;6.818;2024-03-08T05:44:18;1.20;1.00
6407;DHT22;3236;51.022;6.818;2024-03-08T05:46:46;1.30;99.90
6407;DHT22;3236;51.022;6.818;2024-03-08T05:49:14;1.00;99.90
6407;DHT22;3236;51.022;6.818;2024-03-08T05:51:41;1.20;99.90
6407;DHT22;3236;51.022;6.818;2024-03-08T05:54:10;0.90;93.50
6407;DHT22;3236;51.022;6.818;2024-03-08T05:56:37;1.00;99.90
6407;DHT22;3236;51.022;6.818;2024-03-08T05:59:06;0.80;99.90
6407;DHT22;3236;51.022;6.818;2024-03-08T06:01:33;1.40;99.90
6407;DHT22;3236;51.022;6.818;2024-03-08T06:04:03;1.00;99.90
6407;DHT22;3236;51.022;6.818;2024-03-08T06:06:30;1.40;99.90
6407;DHT22;3236;51.022;6.818;2024-03-08T06:08:57;1.10;99.90
6407;DHT22;3236;51.022;6.818;2024-03-08T06:11:25;1.20;99.90
6407;DHT22;3236;51.022;6.818;2024-03-08T06:13:54;1.10;99.90
6407;DHT22;3236;51.022;6.818;2024-03-08T06:16:25;1.20;99.90
6407;DHT22;3236;51.022;6.818;2024-03-08T06:18:55;0.70;99.90
6407;DHT22;3236;51.022;6.818;2024-03-08T06:21:24;1.30;99.90
6407;DHT22;3236;51.022;6.818;2024-03-08T06:23:52;0.90;99.90
6407;DHT22;3236;51.022;6.818;2024-03-08T06:26:20;1.30;99.90
6407;DHT22;3236;51.022;6.818;2024-03-08T06:28:53;1.50;99.90
6407;DHT22;3236;51.022;6.818;2024-03-08T06:31:20;1.40;99.90
6407;DHT22;3236;51.022;6.818;2024-03-08T06:33:47;1.40;99.90
6407;DHT22;3236;51.022;6.818;2024-03-08T06:36:16;1.00;99.90
6407;DHT22;3236;51.022;6.818;2024-03-08T06:38:46;1.70;99.90
6407;DHT22;3236;51.022;6.818;2024-03-08T06:41:12;1.40;99.90
6407;DHT22;3236;51.022;6.818;2024-03-08T06:43:41;1.40;99.90
6407;DHT22;3236;51.022;6.818;2024-03-08T06:46:09;1.60;1.00
6407;DHT22;3236;51.022;6.818;2024-03-08T06:48:38;1.70;99.90
6407;DHT22;3236;51.022;6.818;2024-03-08T06:51:05;2.00;99.90
6407;DHT22;3236;51.022;6.818;2024-03-08T06:53:32;2.40;99.90
6407;DHT22;3236;51.022;6.818;2024-03-08T06:56:02;2.20;1.00
6407;DHT22;3236;51.022;6.818;2024-03-08T06:58:29;2.70;99.90
6407;DHT22;3236;51.022;6.818;2024-03-08T07:00:56;2.60;36.70
6407;DHT22;3236;51.022;6.818;2024-03-08T07:03:26;2.50;1.00
6407;DHT22;3236;51.022;6.818;2024-03-08T07:05:55;2.90;1.00
6407;DHT22;3236;51.022;6.818;2024-03-08T07:08:23;2.60;99.90
6407;DHT22;3236;51.022;6.818;2024-03-08T07:10:52;2.90;65.90
6407;DHT22;3236;51.022;6.818;2024-03-08T07:13:21;3.10;1.00
6407;DHT22;3236;51.022;6.818;2024-03-08T07:15:48;3.10;99.90
6407;DHT22;3236;51.022;6.818;2024-03-08T07:18:15;3.30;99.90
6407;DHT22;3236;51.022;6.818;2024-03-08T07:23:09;3.00;99.90
6407;DHT22;3236;51.022;6.818;2024-03-08T07:25:36;3.60;99.90
6407;DHT22;3236;51.022;6.818;2024-03-08T07:28:04;3.50;99.90
6407;DHT22;3236;51.022;6.818;2024-03-08T07:30:34;3.50;99.90
6407;DHT22;3236;51.022;6.818;2024-03-08T07:33:33;3.80;7.60
6407;DHT22;3236;51.022;6.818;2024-03-08T07:36:01;3.70;1.00
6407;DHT22;3236;51.022;6.818;2024-03-08T07:38:28;3.90;99.90
6407;DHT22;3236;51.022;6.818;2024-03-08T07:40:55;3.60;99.90
6407;DHT22;3236;51.022;6.818;2024-03-08T07:43:25;3.90;99.90
6407;DHT22;3236;51.022;6.818;2024-03-08T07:45:54;3.80;99.90
6407;DHT22;3236;51.022;6.818;2024-03-08T07:48:21;3.80;99.90
6407;DHT22;3236;51.022;6.818;2024-03-08T07:50:50;4.10;99.90
6407;DHT22;3236;51.022;6.818;2024-03-08T07:53:17;4.00;99.90
6407;DHT22;3236;51.022;6.818;2024-03-08T07:55:44;4.50;99.90
6407;DHT22;3236;51.022;6.818;2024-03-08T07:58:14;4.10;72.20
6407;DHT22;3236;51.022;6.818;2024-03-08T08:00:42;4.40;1.00
6407;DHT22;3236;51.022;6.818;2024-03-08T08:03:11;4.40;1.00
6407;DHT22;3236;51.022;6.818;2024-03-08T08:05:41;5.10;99.90
6407;DHT22;3236;51.022;6.818;2024-03-08T08:08:08;4.50;99.90
6407;DHT22;3236;51.022;6.818;2024-03-08T08:10:36;4.80;99.90
6407;DHT22;3236;51.022;6.818;2024-03-08T08:13:06;5.20;99.90
6407;DHT22;3236;51.022;6.818;2024-03-08T08:15:36;5.10;99.90
6407;DHT22;3236;51.022;6.818;2024-03-08T08:18:04;5.00;99.90
6407;DHT22;3236;51.022;6.818;2024-03-08T08:20:33;5.30;99.90
6407;DHT22;3236;51.022;6.818;2024-03-08T08:25:27;5.20;99.90
6407;DHT22;3236;51.022;6.818;2024-03-08T08:27:55;5.40;92.00
6407;DHT22;3236;51.022;6.818;2024-03-08T08:30:22;5.90;99.90
6407;DHT22;3236;51.022;6.818;2024-03-08T08:32:49;5.40;99.90
6407;DHT22;3236;51.022;6.818;2024-03-08T08:35:16;5.90;99.90
6407;DHT22;3236;51.022;6.818;2024-03-08T08:37:46;5.80;18.00
6407;DHT22;3236;51.022;6.818;2024-03-08T08:40:14;6.20;46.00
6407;DHT22;3236;51.022;6.818;2024-03-08T08:45:11;5.90;64.60
6407;DHT22;3236;51.022;6.818;2024-03-08T08:50:08;6.50;1.00
6407;DHT22;3236;51.022;6.818;2024-03-08T08:52:37;6.60;99.90
6407;DHT22;3236;51.022;6.818;2024-03-08T08:55:06;6.30;99.90
6407;DHT22;3236;51.022;6.818;2024-03-08T08:57:33;6.50;99.90
6407;DHT22;3236;51.022;6.818;2024-03-08T09:00:01;6.40;99.90
6407;DHT22;3236;51.022;6.818;2024-03-08T09:02:27;6.50;99.90
6407;DHT22;3236;51.022;6.818;2024-03-08T09:04:55;6.70;99.90
6407;DHT22;3236;51.022;6.818;2024-03-08T09:07:22;6.50;99.90
6407;DHT22;3236;51.022;6.818;2024-03-08T09:09:49;7.20;99.90
6407;DHT22;3236;51.022;6.818;2024-03-08T09:12:18;7.60;99.90
6407;DHT22;3236;51.022;6.818;2024-03-08T09:14:45;6.90;99.90
6407;DHT22;3236;51.022;6.818;2024-03-08T09:17:12;7.30;99.90
6407;DHT22;3236;51.022;6.818;2024-03-08T09:19:43;7.00;99.90
6407;DHT22;3236;51.022;6.818;2024-03-08T09:24:45;7.50;99.90
6407;DHT22;3236;51.022;6.818;2024-03-08T09:27:12;7.40;99.90
6407;DHT22;3236;51.022;6.818;2024-03-08T09:29:41;7.40;99.90
6407;DHT22;3236;51.022;6.818;2024-03-08T09:32:09;7.60;99.90
6407;DHT22;3236;51.022;6.818;2024-03-08T09:34:37;7.50;93.60
6407;DHT22;3236;51.022;6.818;2024-03-08T09:37:05;7.30;99.90
6407;DHT22;3236;51.022;6.818;2024-03-08T09:39:32;7.50;26.90
6407;DHT22;3236;51.022;6.818;2024-03-08T09:41:59;7.80;99.90
6407;DHT22;3236;51.022;6.818;2024-03-08T09:44:27;7.80;99.90
6407;DHT22;3236;51.022;6.818;2024-03-08T09:46:59;7.50;99.90
6407;DHT22;3236;51.022;6.818;2024-03-08T09:49:28;7.80;99.90
6407;DHT22;3236;51.022;6.818;2024-03-08T09:51:55;7.70;99.90
6407;DHT22;3236;51.022;6.818;2024-03-08T09:54:23;7.80;1.00
6407;DHT22;3236;51.022;6.818;2024-03-08T09:56:51;8.20;99.90
6407;DHT22;3236;51.022;6.818;2024-03-08T09:59:18;7.70;99.90
6407;DHT22;3236;51.022;6.818;2024-03-08T10:02:13;8.20;99.90
6407;DHT22;3236;51.022;6.818;2024-03-08T10:04:41;7.90;99.90
6407;DHT22;3236;51.022;6.818;2024-03-08T10:07:08;8.10;1.00
6407;DHT22;3236;51.022;6.818;2024-03-08T10:09:38;8.20;1.00
6407;DHT22;3236;51.022;6.818;2024-03-08T10:12:05;8.50;99.90
6407;DHT22;3236;51.022;6.818;2024-03-08T10:14:32;8.40;1.00
6407;DHT22;3236;51.022;6.818;2024-03-08T10:16:59;8.60;77.20
6407;DHT22;3236;51.022;6.818;2024-03-08T10:19:28;8.60;73.50
6407;DHT22;3236;51.022;6.818;2024-03-08T10:21:55;8.60;99.90
6407;DHT22;3236;51.022;6.818;2024-03-08T10:24:24;9.10;56.70
6407;DHT22;3236;51.022;6.818;2024-03-08T10:26:52;8.50;55.30
6407;DHT22;3236;51.022;6.818;2024-03-08T10:29:20;8.80;53.70
6407;DHT22;3236;51.022;6.818;2024-03-08T10:31:50;9.00;99.90
6407;DHT22;3236;51.022;6.818;2024-03-08T10:34:19;9.10;33.40
6407;DHT22;3236;51.022;6.818;2024-03-08T10:36:51;9.00;99.90
6407;DHT22;3236;51.022;6.818;2024-03-08T10:39:22;9.20;99.90
6407;DHT22;3236;51.022;6.818;2024-03-08T10:41:55;9.70;12.70
6407;DHT22;3236;51.022;6.818;2024-03-08T10:44:41;9.10;15.50
6407;DHT22;3236;51.022;6.818;2024-03-08T10:47:17;9.50;99.90
6407;DHT22;3236;51.022;6.818;2024-03-08T10:49:54;9.50;99.90
6407;DHT22;3236;51.022;6.818;2024-03-08T10:52:22;9.70;99.90
6407;DHT22;3236;51.022;6.818;2024-03-08T10:54:52;9.50;1.00
6407;DHT22;3236;51.022;6.818;2024-03-08T10:57:22;9.60;1.00
6407;DHT22;3236;51.022;6.818;2024-03-08T10:59:51;9.90;99.90
6407;DHT22;3236;51.022;6.818;2024-03-08T11:02:19;9.40;1.00
6407;DHT22;3236;51.022;6.818;2024-03-08T11:04:47;9.80;99.90
6407;DHT22;3236;51.022;6.818;2024-03-08T11:07:22;9.80;1.00
6407;DHT22;3236;51.022;6.818;2024-03-08T11:09:49;10.00;1.00
6407;DHT22;3236;51.022;6.818;2024-03-08T11:12:23;10.50;99.90
6407;DHT22;3236;51.022;6.818;2024-03-08T11:14:55;10.20;99.90
6407;DHT22;3236;51.022;6.818;2024-03-08T11:17:40;10.30;99.90
6407;DHT22;3236;51.022;6.818;2024-03-08T11:20:10;10.50;99.90
6407;DHT22;3236;51.022;6.818;2024-03-08T11:22:49;11.00;99.90
6407;DHT22;3236;51.022;6.818;2024-03-08T11:25:34;11.10;99.90
6407;DHT22;3236;51.022;6.818;2024-03-08T11:28:13;11.30;99.90
6407;DHT22;3236;51.022;6.818;2024-03-08T11:30:46;12.50;99.90
6407;DHT22;3236;51.022;6.818;2024-03-08T11:33:16;12.30;99.90
6407;DHT22;3236;51.022;6.818;2024-03-08T11:38:13;13.00;99.90
6407;DHT22;3236;51.022;6.818;2024-03-08T11:40:42;12.70;99.90
6407;DHT22;3236;51.022;6.818;2024-03-08T11:43:09;12.70;99.90
6407;DHT22;3236;51.022;6.818;2024-03-08T11:45:36;12.90;99.90
6407;DHT22;3236;51.022;6.818;2024-03-08T11:48:04;13.20;99.90
6407;DHT22;3236;51.022;6.818;2024-03-08T11:53:03;13.30;99.90
6407;DHT22;3236;51.022;6.818;2024-03-08T11:55:32;13.50;99.90
6407;DHT22;3236;51.022;6.818;2024-03-08T11:58:07;13.50;99.90
6407;DHT22;3236;51.022;6.818;2024-03-08T12:00:36;14.20;99.90
6407;DHT22;3236;51.022;6.818;2024-03-08T12:03:07;14.30;99.90
6407;DHT22;3236;51.022;6.818;2024-03-08T12:05:36;14.60;99.90
6407;DHT22;3236;51.022;6.818;2024-03-08T12:08:04;15.60;99.90
6407;DHT22;3236;51.022;6.818;2024-03-08T12:10:37;15.00;99.90
6407;DHT22;3236;51.022;6.818;2024-03-08T12:13:05;15.00;99.90
6407;DHT22;3236;51.022;6.818;2024-03-08T12:15:39;15.30;99.90
6407;DHT22;3236;51.022;6.818;2024-03-08T12:18:06;15.00;99.90
6407;DHT22;3236;51.022;6.818;2024-03-08T12:20:36;14.90;99.90
6407;DHT22;3236;51.022;6.818;2024-03-08T12:23:13;14.80;99.90
6407;DHT22;3236;51.022;6.818;2024-03-08T12:25:42;15.30;99.90
6407;DHT22;3236;51.022;6.818;2024-03-08T12:28:10;15.30;99.90
6407;DHT22;3236;51.022;6.818;2024-03-08T12:30:46;16.00;99.90
6407;DHT22;3236;51.022;6.818;2024-03-08T12:33:14;15.70;99.90
6407;DHT22;3236;51.022;6.818;2024-03-08T12:35:51;15.30;99.90
6407;DHT22;3236;51.022;6.818;2024-03-08T12:38:20;15.60;99.90
6407;DHT22;3236;51.022;6.818;2024-03-08T12:40:55;14.90;99.90
6407;DHT22;3236;51.022;6.818;2024-03-08T12:45:50;15.40;99.90
6407;DHT22;3236;51.022;6.818;2024-03-08T12:48:18;15.10;99.90
6407;DHT22;3236;51.022;6.818;2024-03-08T12:50:46;15.30;99.90
6407;DHT22;3236;51.022;6.818;2024-03-08T12:58:08;14.10;99.90
6407;DHT22;3236;51.022;6.818;2024-03-08T13:00:35;14.60;99.90
6407;DHT22;3236;51.022;6.818;2024-03-08T13:03:03;14.80;99.90
6407;DHT22;3236;51.022;6.818;2024-03-08T13:05:32;15.30;99.90
6407;DHT22;3236;51.022;6.818;2024-03-08T13:07:59;14.90;99.90
6407;DHT22;3236;51.022;6.818;2024-03-08T13:12:53;14.60;99.90
6407;DHT22;3236;51.022;6.818;2024-03-08T13:15:25;15.10;99.90
6407;DHT22;3236;51.022;6.818;2024-03-08T13:17:54;14.80;99.90
6407;DHT22;3236;51.022;6.818;2024-03-08T13:20:23;15.10;99.90
6407;DHT22;3236;51.022;6.818;2024-03-08T13:22:54;15.50;99.90
6407;DHT22;3236;51.022;6.818;2024-03-08T13:25:21;14.90;99.90
6407;DHT22;3236;51.022;6.818;2024-03-08T13:27:49;15.30;99.90
6407;DHT22;3236;51.022;6.818;2024-03-08T13:40:08;16.20;99.90
6407;DHT22;3236;51.022;6.818;2024-03-08T13:45:08;17.30;99.90
6407;DHT22;3236;51.022;6.818;2024-03-08T13:55:07;15.80;99.90
6407;DHT22;3236;51.022;6.818;2024-03-08T14:00:02;15.70;99.90
6407;DHT22;3236;51.022;6.818;2024-03-08T14:24:42;16.30;99.90
6407;DHT22;3236;51.022;6.818;2024-03-08T14:42:00;16.70;99.90
6407;DHT22;3236;51.022;6.818;2024-03-08T14:59:18;17.00;99.90
6407;DHT22;3236;51.022;6.818;2024-03-08T15:09:11;17.80;99.90
6407;DHT22;3236;51.022;6.818;2024-03-08T15:11:45;16.40;99.90
6407;DHT22;3236;51.022;6.818;2024-03-08T15:16:46;15.80;99.90
6407;DHT22;3236;51.022;6.818;2024-03-08T15:41:37;15.70;99.90
6407;DHT22;3236;51.022;6.818;2024-03-08T15:51:29;14.80;99.90
6407;DHT22;3236;51.022;6.818;2024-03-08T15:58:57;13.50;99.90
6407;DHT22;3236;51.022;6.818;2024-03-08T16:03:52;13.20;99.90
6407;DHT22;3236;51.022;6.818;2024-03-08T16:08:49;12.30;99.90
6407;DHT22;3236;51.022;6.818;2024-03-08T16:23:38;11.80;99.90
6407;DHT22;3236;51.022;6.818;2024-03-08T16:26:06;11.40;99.90
6407;DHT22;3236;51.022;6.818;2024-03-08T16:28:34;11.60;99.90
6407;DHT22;3236;51.022;6.818;2024-03-08T16:36:04;11.30;99.90
6407;DHT22;3236;51.022;6.818;2024-03-08T16:41:06;11.00;99.90
6407;DHT22;3236;51.022;6.818;2024-03-08T17:08:11;9.90;99.90
6407;DHT22;3236;51.022;6.818;2024-03-08T17:15:41;9.80;99.90
6407;DHT22;3236;51.022;6.818;2024-03-08T17:18:09;9.70;99.90
6407;DHT22;3236;51.022;6.818;2024-03-08T17:23:05;9.40;99.90
6407;DHT22;3236;51.022;6.818;2024-03-08T17:33:05;9.50;99.90
6407;DHT22;3236;51.022;6.818;2024-03-08T17:35:38;9.20;99.90
6407;DHT22;3236;51.022;6.818;2024-03-08T17:40:36;9.50;99.90
6407;DHT22;3236;51.022;6.818;2024-03-08T17:43:05;8.80;99.90
6407;DHT22;3236;51.022;6.818;2024-03-08T17:48:09;9.10;99.90
6407;DHT22;3236;51.022;6.818;2024-03-08T17:53:06;8.60;99.90
6407;DHT22;3236;51.022;6.818;2024-03-08T17:58:03;8.70;99.90
6407;DHT22;3236;51.022;6.818;2024-03-08T18:00:31;8.90;99.90
6407;DHT22;3236;51.022;6.818;2024-03-08T18:03:01;8.70;99.90
6407;DHT22;3236;51.022;6.818;2024-03-08T18:05:32;8.70;99.90
6407;DHT22;3236;51.022;6.818;2024-03-08T18:08:02;8.40;99.90
6407;DHT22;3236;51.022;6.818;2024-03-08T18:10:31;8.60;99.90
6407;DHT22;3236;51.022;6.818;2024-03-08T18:13:05;8.80;99.90
6407;DHT22;3236;51.022;6.818;2024-03-08T18:20:36;8.50;99.90
6407;DHT22;3236;51.022;6.818;2024-03-08T18:28:06;8.60;99.90
6407;DHT22;3236;51.022;6.818;2024-03-08T18:33:03;8.30;99.90
6407;DHT22;3236;51.022;6.818;2024-03-08T18:37:59;8.40;99.90
6407;DHT22;3236;51.022;6.818;2024-03-08T18:40:26;8.50;99.90
6407;DHT22;3236;51.022;6.818;2024-03-08T18:42:54;8.20;1.00
6407;DHT22;3236;51.022;6.818;2024-03-08T18:45:22;8.10;99.90
6407;DHT22;3236;51.022;6.818;2024-03-08T18:47:51;8.10;1.00
6407;DHT22;3236;51.022;6.818;2024-03-08T18:50:20;8.00;99.90
6407;DHT22;3236;51.022;6.818;2024-03-08T18:52:49;7.90;99.90
6407;DHT22;3236;51.022;6.818;2024-03-08T18:55:19;7.90;99.90
6407;DHT22;3236;51.022;6.818;2024-03-08T18:57:50;7.80;99.90
6407;DHT22;3236;51.022;6.818;2024-03-08T19:00:21;7.50;1.00
6407;DHT22;3236;51.022;6.818;2024-03-08T19:02:53;7.90;1.00
6407;DHT22;3236;51.022;6.818;2024-03-08T19:05:21;7.50;1.00
6407;DHT22;3236;51.022;6.818;2024-03-08T19:07:49;7.60;1.00
6407;DHT22;3236;51.022;6.818;2024-03-08T19:10:20;7.70;99.90
6407;DHT22;3236;51.022;6.818;2024-03-08T19:12:49;7.70;99.90
6407;DHT22;3236;51.022;6.818;2024-03-08T19:15:24;7.20;15.40
6407;DHT22;3236;51.022;6.818;2024-03-08T19:17:53;7.60;30.00
6407;DHT22;3236;51.022;6.818;2024-03-08T19:20:21;7.50;55.80
6407;DHT22;3236;51.022;6.818;2024-03-08T19:22:53;7.20;54.60
6407;DHT22;3236;51.022;6.818;2024-03-08T19:25:23;7.20;93.50
6407;DHT22;3236;51.022;6.818;2024-03-08T19:27:53;7.20;1.00
6407;DHT22;3236;51.022;6.818;2024-03-08T19:30:21;7.30;99.90
6407;DHT22;3236;51.022;6.818;2024-03-08T19:32:52;7.10;1.00
6407;DHT22;3236;51.022;6.818;2024-03-08T19:35:21;6.50;99.90
6407;DHT22;3236;51.022;6.818;2024-03-08T19:37:50;6.40;99.90
6407;DHT22;3236;51.022;6.818;2024-03-08T19:40:22;6.60;99.90
6407;DHT22;3236;51.022;6.818;2024-03-08T19:42:50;6.80;99.90
6407;DHT22;3236;51.022;6.818;2024-03-08T19:45:18;7.10;99.90
6407;DHT22;3236;51.022;6.818;2024-03-08T19:47:46;6.50;99.90
6407;DHT22;3236;51.022;6.818;2024-03-08T19:50:14;7.00;61.40
6407;DHT22;3236;51.022;6.818;2024-03-08T19:52:43;6.60;1.00
6407;DHT22;3236;51.022;6.818;2024-03-08T19:55:11;6.50;99.90
6407;DHT22;3236;51.022;6.818;2024-03-08T19:57:42;6.50;13.30
6407;DHT22;3236;51.022;6.818;2024-03-08T20:00:13;6.80;99.90
6407;DHT22;3236;51.022;6.818;2024-03-08T20:02:47;6.50;47.10
6407;DHT22;3236;51.022;6.818;2024-03-08T20:05:15;6.40;26.30
6407;DHT22;3236;51.022;6.818;2024-03-08T20:07:46;6.50;29.80
6407;DHT22;3236;51.022;6.818;2024-03-08T20:10:15;6.70;99.90
6407;DHT22;3236;51.022;6.818;2024-03-08T20:12:46;6.40;43.20
6407;DHT22;3236;51.022;6.818;2024-03-08T20:15:14;6.30;48.80
6407;DHT22;3236;51.022;6.818;2024-03-08T20:17:42;6.30;71.80
6407;DHT22;3236;51.022;6.818;2024-03-08T20:20:12;6.20;70.80
6407;DHT22;3236;51.022;6.818;2024-03-08T20:22:41;6.10;87.30
6407;DHT22;3236;51.022;6.818;2024-03-08T20:25:08;6.10;94.30
6407;DHT22;3236;51.022;6.818;2024-03-08T20:27:39;6.00;99.90
6407;DHT22;3236;51.022;6.818;2024-03-08T20:30:13;6.10;96.40
6407;DHT22;3236;51.022;6.818;2024-03-08T20:32:47;5.50;99.90
6407;DHT22;3236;51.022;6.818;2024-03-08T20:35:15;5.70;99.90
6407;DHT22;3236;51.022;6.818;2024-03-08T20:37:46;5.60;99.90
6407;DHT22;3236;51.022;6.818;2024-03-08T20:40:13;5.70;99.90
6407;DHT22;3236;51.022;6.818;2024-03-08T20:45:09;5.70;99.90
6407;DHT22;3236;51.022;6.818;2024-03-08T20:47:41;6.00;99.90
6407;DHT22;3236;51.022;6.818;2024-03-08T20:50:13;6.00;99.90
6407;DHT22;3236;51.022;6.818;2024-03-08T20:52:47;5.70;99.90
6407;DHT22;3236;51.022;6.818;2024-03-08T20:55:15;5.60;99.90
6407;DHT22;3236;51.022;6.818;2024-03-08T21:00:15;5.30;99.90
6407;DHT22;3236;51.022;6.818;2024-03-08T21:03:02;5.60;99.90
6407;DHT22;3236;51.022;6.818;2024-03-08T21:07:58;5.80;1.00
6407;DHT22;3236;51.022;6.818;2024-03-08T21:10:26;5.50;99.90